sensor_id;sensor_type;location;lat;lon;timestamp;P1;durP1;ratioP1;P2;durP2;ratioP2
73107;SDS011;61559;50.476;15.588;2023-01-29T00:00:42;7.80;;;4.40;;
73107;SDS011;61559;50.476;15.588;2023-01-29T00:03:33;8.70;;;4.80;;
73107;SDS011;61559;50.476;15.588;2023-01-29T00:06:05;8.00;;;4.50;;
73107;SDS011;61559;50.476;15.588;2023-01-29T00:08:37;6.90;;;3.90;;
73107;SDS011;61559;50.476;15.588;2023-01-29T00:11:08;11.90;;;4.80;;
73107;SDS011;61559;50.476;15.588;2023-01-29T00:13:39;7.00;;;3.70;;
73107;SDS011;61559;50.476;15.588;2023-01-29T00:16:11;7.20;;;3.60;;
73107;SDS011;61559;50.476;15.588;2023-01-29T00:18:42;5.00;;;3.30;;
73107;SDS011;61559;50.476;15.588;2023-01-29T00:21:14;6.40;;;3.10;;
73107;SDS011;61559;50.476;15.588;2023-01-29T00:23:47;6.20;;;3.40;;
73107;SDS011;61559;50.476;15.588;2023-01-29T00:26:19;7.20;;;3.50;;
73107;SDS011;61559;50.476;15.588;2023-01-29T00:28:51;7.50;;;2.90;;
73107;SDS011;61559;50.476;15.588;2023-01-29T00:31:24;6.10;;;2.80;;
73107;SDS011;61559;50.476;15.588;2023-01-29T00:33:55;6.20;;;2.80;;
73107;SDS011;61559;50.476;15.588;2023-01-29T00:36:26;6.40;;;3.00;;
73107;SDS011;61559;50.476;15.588;2023-01-29T00:38:58;6.20;;;3.20;;
73107;SDS011;61559;50.476;15.588;2023-01-29T00:41:38;5.00;;;2.80;;
73107;SDS011;61559;50.476;15.588;2023-01-29T00:44:26;5.90;;;3.10;;
73107;SDS011;61559;50.476;15.588;2023-01-29T00:47:15;6.30;;;3.10;;
73107;SDS011;61559;50.476;15.588;2023-01-29T00:50:00;5.00;;;2.60;;
73107;SDS011;61559;50.476;15.588;2023-01-29T00:52:33;6.50;;;2.60;;
73107;SDS011;61559;50.476;15.588;2023-01-29T00:55:05;6.70;;;2.80;;
73107;SDS011;61559;50.476;15.588;2023-01-29T00:57:38;4.90;;;2.30;;
73107;SDS011;61559;50.476;15.588;2023-01-29T01:00:11;3.90;;;1.90;;
73107;SDS011;61559;50.476;15.588;2023-01-29T01:02:51;4.10;;;2.30;;
73107;SDS011;61559;50.476;15.588;2023-01-29T01:05:34;5.10;;;1.90;;
73107;SDS011;61559;50.476;15.588;2023-01-29T01:10:59;3.80;;;1.90;;
73107;SDS011;61559;50.476;15.588;2023-01-29T01:13:32;5.00;;;2.30;;
73107;SDS011;61559;50.476;15.588;2023-01-29T01:18:36;5.80;;;1.90;;
73107;SDS011;61559;50.476;15.588;2023-01-29T01:21:08;5.20;;;2.50;;
73107;SDS011;61559;50.476;15.588;2023-01-29T01:23:39;3.90;;;1.90;;
73107;SDS011;61559;50.476;15.588;2023-01-29T01:26:10;4.10;;;2.30;;
73107;SDS011;61559;50.476;15.588;2023-01-29T01:28:41;3.90;;;1.90;;
73107;SDS011;61559;50.476;15.588;2023-01-29T01:31:12;3.60;;;1.80;;
73107;SDS011;61559;50.476;15.588;2023-01-29T01:33:43;4.00;;;2.20;;
73107;SDS011;61559;50.476;15.588;2023-01-29T01:36:15;6.30;;;2.40;;
73107;SDS011;61559;50.476;15.588;2023-01-29T01:38:46;5.40;;;2.10;;
73107;SDS011;61559;50.476;15.588;2023-01-29T01:41:18;3.50;;;2.10;;
73107;SDS011;61559;50.476;15.588;2023-01-29T01:43:52;4.30;;;1.70;;
73107;SDS011;61559;50.476;15.588;2023-01-29T01:46:25;3.70;;;1.90;;
73107;SDS011;61559;50.476;15.588;2023-01-29T01:48:59;3.60;;;1.70;;
73107;SDS011;61559;50.476;15.588;2023-01-29T01:51:36;4.50;;;1.70;;
73107;SDS011;61559;50.476;15.588;2023-01-29T01:54:10;4.60;;;1.80;;
73107;SDS011;61559;50.476;15.588;2023-01-29T01:56:45;3.80;;;1.80;;
73107;SDS011;61559;50.476;15.588;2023-01-29T01:59:22;2.60;;;1.60;;
73107;SDS011;61559;50.476;15.588;2023-01-29T02:01:53;4.80;;;1.90;;
73107;SDS011;61559;50.476;15.588;2023-01-29T02:04:25;2.40;;;1.50;;
73107;SDS011;61559;50.476;15.588;2023-01-29T02:07:14;2.80;;;1.80;;
73107;SDS011;61559;50.476;15.588;2023-01-29T02:10:04;2.00;;;1.20;;
73107;SDS011;61559;50.476;15.588;2023-01-29T02:12:43;6.90;;;1.70;;
73107;SDS011;61559;50.476;15.588;2023-01-29T02:15:16;3.70;;;1.80;;
73107;SDS011;61559;50.476;15.588;2023-01-29T02:17:47;4.20;;;1.90;;
73107;SDS011;61559;50.476;15.588;2023-01-29T02:20:19;3.10;;;1.80;;
73107;SDS011;61559;50.476;15.588;2023-01-29T02:23:03;7.80;;;2.70;;
73107;SDS011;61559;50.476;15.588;2023-01-29T02:28:32;3.20;;;1.10;;
73107;SDS011;61559;50.476;15.588;2023-01-29T02:31:09;2.90;;;1.10;;
73107;SDS011;61559;50.476;15.588;2023-01-29T02:33:56;1.40;;;1.00;;
73107;SDS011;61559;50.476;15.588;2023-01-29T02:36:36;2.10;;;1.30;;
73107;SDS011;61559;50.476;15.588;2023-01-29T02:39:16;2.30;;;1.20;;
73107;SDS011;61559;50.476;15.588;2023-01-29T02:41:53;1.90;;;1.10;;
73107;SDS011;61559;50.476;15.588;2023-01-29T02:44:30;1.20;;;1.10;;
73107;SDS011;61559;50.476;15.588;2023-01-29T02:47:08;2.50;;;1.10;;
73107;SDS011;61559;50.476;15.588;2023-01-29T02:49:46;2.00;;;1.10;;
73107;SDS011;61559;50.476;15.588;2023-01-29T02:52:24;2.10;;;1.30;;
73107;SDS011;61559;50.476;15.588;2023-01-29T02:55:03;1.50;;;0.90;;
73107;SDS011;61559;50.476;15.588;2023-01-29T02:57:38;1.60;;;1.50;;
73107;SDS011;61559;50.476;15.588;2023-01-29T03:00:12;4.80;;;1.60;;
73107;SDS011;61559;50.476;15.588;2023-01-29T03:02:47;3.80;;;1.70;;
73107;SDS011;61559;50.476;15.588;2023-01-29T03:05:26;2.00;;;1.50;;
73107;SDS011;61559;50.476;15.588;2023-01-29T03:08:01;2.60;;;1.30;;
73107;SDS011;61559;50.476;15.588;2023-01-29T03:10:38;3.50;;;1.30;;
73107;SDS011;61559;50.476;15.588;2023-01-29T03:13:13;2.60;;;1.70;;
73107;SDS011;61559;50.476;15.588;2023-01-29T03:15:51;3.00;;;1.80;;
73107;SDS011;61559;50.476;15.588;2023-01-29T03:21:02;1.80;;;1.50;;
73107;SDS011;61559;50.476;15.588;2023-01-29T03:23:57;3.50;;;1.80;;
73107;SDS011;61559;50.476;15.588;2023-01-29T03:26:47;3.00;;;1.60;;
73107;SDS011;61559;50.476;15.588;2023-01-29T03:29:36;4.10;;;2.20;;
73107;SDS011;61559;50.476;15.588;2023-01-29T03:32:27;5.40;;;2.50;;
73107;SDS011;61559;50.476;15.588;2023-01-29T03:35:01;6.60;;;3.10;;
73107;SDS011;61559;50.476;15.588;2023-01-29T03:37:40;6.70;;;3.40;;
73107;SDS011;61559;50.476;15.588;2023-01-29T03:40:13;7.20;;;3.80;;
73107;SDS011;61559;50.476;15.588;2023-01-29T03:42:49;6.50;;;3.20;;
73107;SDS011;61559;50.476;15.588;2023-01-29T03:45:35;7.80;;;3.70;;
73107;SDS011;61559;50.476;15.588;2023-01-29T03:48:17;7.20;;;3.20;;
73107;SDS011;61559;50.476;15.588;2023-01-29T03:51:00;6.70;;;4.00;;
73107;SDS011;61559;50.476;15.588;2023-01-29T03:53:40;6.40;;;3.20;;
73107;SDS011;61559;50.476;15.588;2023-01-29T03:56:19;6.90;;;4.10;;
73107;SDS011;61559;50.476;15.588;2023-01-29T03:59:01;6.20;;;3.70;;
73107;SDS011;61559;50.476;15.588;2023-01-29T04:01:42;6.60;;;3.40;;
73107;SDS011;61559;50.476;15.588;2023-01-29T04:04:17;7.50;;;3.90;;
73107;SDS011;61559;50.476;15.588;2023-01-29T04:06:53;8.60;;;3.80;;
73107;SDS011;61559;50.476;15.588;2023-01-29T04:09:29;6.30;;;3.40;;
73107;SDS011;61559;50.476;15.588;2023-01-29T04:12:04;5.90;;;3.70;;
73107;SDS011;61559;50.476;15.588;2023-01-29T04:14:38;8.50;;;4.60;;
73107;SDS011;61559;50.476;15.588;2023-01-29T04:17:13;5.00;;;3.40;;
73107;SDS011;61559;50.476;15.588;2023-01-29T04:19:48;8.20;;;3.70;;
73107;SDS011;61559;50.476;15.588;2023-01-29T04:22:21;3.80;;;2.40;;
73107;SDS011;61559;50.476;15.588;2023-01-29T04:24:54;6.40;;;3.20;;
73107;SDS011;61559;50.476;15.588;2023-01-29T04:27:32;3.40;;;2.10;;
73107;SDS011;61559;50.476;15.588;2023-01-29T04:30:14;4.10;;;2.40;;
73107;SDS011;61559;50.476;15.588;2023-01-29T04:32:56;5.40;;;2.90;;
73107;SDS011;61559;50.476;15.588;2023-01-29T04:35:42;7.80;;;3.40;;
73107;SDS011;61559;50.476;15.588;2023-01-29T04:38:23;6.50;;;2.90;;
73107;SDS011;61559;50.476;15.588;2023-01-29T04:41:03;6.40;;;3.20;;
73107;SDS011;61559;50.476;15.588;2023-01-29T04:43:40;5.40;;;2.80;;
73107;SDS011;61559;50.476;15.588;2023-01-29T04:46:17;4.80;;;2.70;;
73107;SDS011;61559;50.476;15.588;2023-01-29T04:48:58;5.50;;;2.80;;
73107;SDS011;61559;50.476;15.588;2023-01-29T04:51:44;4.10;;;2.50;;
73107;SDS011;61559;50.476;15.588;2023-01-29T04:54:23;5.70;;;3.00;;
73107;SDS011;61559;50.476;15.588;2023-01-29T04:57:04;5.90;;;3.10;;
73107;SDS011;61559;50.476;15.588;2023-01-29T04:59:44;3.10;;;1.80;;
73107;SDS011;61559;50.476;15.588;2023-01-29T05:02:19;6.50;;;2.80;;
73107;SDS011;61559;50.476;15.588;2023-01-29T05:04:52;6.30;;;3.50;;
73107;SDS011;61559;50.476;15.588;2023-01-29T05:07:25;11.00;;;4.80;;
73107;SDS011;61559;50.476;15.588;2023-01-29T05:10:02;43.10;;;14.50;;
73107;SDS011;61559;50.476;15.588;2023-01-29T05:12:36;75.30;;;23.30;;
73107;SDS011;61559;50.476;15.588;2023-01-29T05:15:10;21.60;;;10.30;;
73107;SDS011;61559;50.476;15.588;2023-01-29T05:17:44;8.50;;;4.30;;
73107;SDS011;61559;50.476;15.588;2023-01-29T05:20:15;6.90;;;3.70;;
73107;SDS011;61559;50.476;15.588;2023-01-29T05:22:47;5.90;;;3.30;;
73107;SDS011;61559;50.476;15.588;2023-01-29T05:25:20;7.10;;;3.80;;
73107;SDS011;61559;50.476;15.588;2023-01-29T05:27:53;7.00;;;3.50;;
73107;SDS011;61559;50.476;15.588;2023-01-29T05:30:34;8.50;;;4.30;;
73107;SDS011;61559;50.476;15.588;2023-01-29T05:33:11;5.30;;;3.00;;
73107;SDS011;61559;50.476;15.588;2023-01-29T05:35:44;7.70;;;4.20;;
73107;SDS011;61559;50.476;15.588;2023-01-29T05:38:16;8.10;;;3.50;;
73107;SDS011;61559;50.476;15.588;2023-01-29T05:40:47;5.50;;;3.70;;
73107;SDS011;61559;50.476;15.588;2023-01-29T05:43:20;8.20;;;3.90;;
73107;SDS011;61559;50.476;15.588;2023-01-29T05:45:52;7.30;;;3.90;;
73107;SDS011;61559;50.476;15.588;2023-01-29T05:48:24;6.70;;;3.40;;
73107;SDS011;61559;50.476;15.588;2023-01-29T05:50:59;5.40;;;3.30;;
73107;SDS011;61559;50.476;15.588;2023-01-29T05:53:31;5.50;;;3.40;;
73107;SDS011;61559;50.476;15.588;2023-01-29T05:56:02;7.60;;;4.10;;
73107;SDS011;61559;50.476;15.588;2023-01-29T05:58:34;10.00;;;3.40;;
73107;SDS011;61559;50.476;15.588;2023-01-29T06:01:09;6.30;;;3.30;;
73107;SDS011;61559;50.476;15.588;2023-01-29T06:03:43;6.20;;;3.60;;
73107;SDS011;61559;50.476;15.588;2023-01-29T06:06:15;8.50;;;4.10;;
73107;SDS011;61559;50.476;15.588;2023-01-29T06:08:46;8.50;;;4.50;;
73107;SDS011;61559;50.476;15.588;2023-01-29T06:11:17;8.50;;;3.00;;
73107;SDS011;61559;50.476;15.588;2023-01-29T06:13:48;6.90;;;3.60;;
73107;SDS011;61559;50.476;15.588;2023-01-29T06:16:19;4.70;;;2.80;;
73107;SDS011;61559;50.476;15.588;2023-01-29T06:18:51;5.30;;;3.10;;
73107;SDS011;61559;50.476;15.588;2023-01-29T06:21:22;6.60;;;3.40;;
73107;SDS011;61559;50.476;15.588;2023-01-29T06:23:53;8.90;;;4.70;;
73107;SDS011;61559;50.476;15.588;2023-01-29T06:28:54;12.30;;;5.40;;
73107;SDS011;61559;50.476;15.588;2023-01-29T06:31:25;8.80;;;5.50;;
73107;SDS011;61559;50.476;15.588;2023-01-29T06:34:06;7.10;;;3.80;;
73107;SDS011;61559;50.476;15.588;2023-01-29T06:36:37;8.20;;;4.20;;
73107;SDS011;61559;50.476;15.588;2023-01-29T06:39:09;8.80;;;4.10;;
73107;SDS011;61559;50.476;15.588;2023-01-29T06:41:40;12.70;;;5.70;;
73107;SDS011;61559;50.476;15.588;2023-01-29T06:44:12;11.40;;;5.10;;
73107;SDS011;61559;50.476;15.588;2023-01-29T06:46:43;8.90;;;4.60;;
73107;SDS011;61559;50.476;15.588;2023-01-29T06:49:15;10.90;;;4.40;;
73107;SDS011;61559;50.476;15.588;2023-01-29T06:51:46;5.50;;;3.00;;
73107;SDS011;61559;50.476;15.588;2023-01-29T06:54:17;7.70;;;4.30;;
73107;SDS011;61559;50.476;15.588;2023-01-29T06:56:48;7.90;;;4.40;;
73107;SDS011;61559;50.476;15.588;2023-01-29T06:59:19;12.80;;;5.00;;
73107;SDS011;61559;50.476;15.588;2023-01-29T07:01:51;9.90;;;5.30;;
73107;SDS011;61559;50.476;15.588;2023-01-29T07:06:51;9.30;;;4.50;;
73107;SDS011;61559;50.476;15.588;2023-01-29T07:09:22;8.00;;;4.50;;
73107;SDS011;61559;50.476;15.588;2023-01-29T07:11:53;8.60;;;5.00;;
73107;SDS011;61559;50.476;15.588;2023-01-29T07:14:24;9.70;;;4.60;;
73107;SDS011;61559;50.476;15.588;2023-01-29T07:16:55;8.90;;;4.10;;
73107;SDS011;61559;50.476;15.588;2023-01-29T07:19:26;7.80;;;3.30;;
73107;SDS011;61559;50.476;15.588;2023-01-29T07:21:58;6.80;;;3.80;;
73107;SDS011;61559;50.476;15.588;2023-01-29T07:24:31;6.90;;;3.60;;
73107;SDS011;61559;50.476;15.588;2023-01-29T07:27:02;7.00;;;2.90;;
73107;SDS011;61559;50.476;15.588;2023-01-29T07:29:33;6.70;;;3.50;;
73107;SDS011;61559;50.476;15.588;2023-01-29T07:32:05;7.90;;;3.30;;
73107;SDS011;61559;50.476;15.588;2023-01-29T07:34:36;8.30;;;4.40;;
73107;SDS011;61559;50.476;15.588;2023-01-29T07:37:08;6.00;;;2.80;;
73107;SDS011;61559;50.476;15.588;2023-01-29T07:39:39;6.60;;;3.10;;
73107;SDS011;61559;50.476;15.588;2023-01-29T07:42:10;3.60;;;2.10;;
73107;SDS011;61559;50.476;15.588;2023-01-29T07:44:41;9.30;;;3.50;;
73107;SDS011;61559;50.476;15.588;2023-01-29T07:47:12;7.50;;;4.00;;
73107;SDS011;61559;50.476;15.588;2023-01-29T07:49:44;18.60;;;8.90;;
73107;SDS011;61559;50.476;15.588;2023-01-29T07:52:15;8.50;;;4.80;;
73107;SDS011;61559;50.476;15.588;2023-01-29T07:54:49;8.10;;;3.20;;
73107;SDS011;61559;50.476;15.588;2023-01-29T07:57:20;8.90;;;4.80;;
73107;SDS011;61559;50.476;15.588;2023-01-29T07:59:52;15.30;;;7.30;;
73107;SDS011;61559;50.476;15.588;2023-01-29T08:04:53;9.10;;;5.10;;
73107;SDS011;61559;50.476;15.588;2023-01-29T08:07:24;5.70;;;3.40;;
73107;SDS011;61559;50.476;15.588;2023-01-29T08:09:55;14.10;;;7.10;;
73107;SDS011;61559;50.476;15.588;2023-01-29T08:12:26;11.80;;;5.40;;
73107;SDS011;61559;50.476;15.588;2023-01-29T08:14:57;9.80;;;5.00;;
73107;SDS011;61559;50.476;15.588;2023-01-29T08:17:28;7.80;;;4.40;;
73107;SDS011;61559;50.476;15.588;2023-01-29T08:19:59;10.00;;;4.70;;
73107;SDS011;61559;50.476;15.588;2023-01-29T08:22:30;12.30;;;6.30;;
73107;SDS011;61559;50.476;15.588;2023-01-29T08:25:02;30.90;;;14.40;;
73107;SDS011;61559;50.476;15.588;2023-01-29T08:27:35;40.10;;;16.50;;
73107;SDS011;61559;50.476;15.588;2023-01-29T08:30:07;71.10;;;23.80;;
73107;SDS011;61559;50.476;15.588;2023-01-29T08:32:40;16.50;;;9.50;;
73107;SDS011;61559;50.476;15.588;2023-01-29T08:35:11;49.30;;;18.70;;
73107;SDS011;61559;50.476;15.588;2023-01-29T08:37:42;15.90;;;7.20;;
73107;SDS011;61559;50.476;15.588;2023-01-29T08:40:20;20.50;;;9.00;;
73107;SDS011;61559;50.476;15.588;2023-01-29T08:42:51;63.70;;;23.40;;
73107;SDS011;61559;50.476;15.588;2023-01-29T08:45:30;29.20;;;12.00;;
73107;SDS011;61559;50.476;15.588;2023-01-29T08:48:02;15.40;;;7.20;;
73107;SDS011;61559;50.476;15.588;2023-01-29T08:50:34;12.70;;;5.50;;
73107;SDS011;61559;50.476;15.588;2023-01-29T08:53:06;8.00;;;3.80;;
73107;SDS011;61559;50.476;15.588;2023-01-29T08:55:38;8.90;;;4.40;;
73107;SDS011;61559;50.476;15.588;2023-01-29T08:58:10;7.30;;;4.10;;
73107;SDS011;61559;50.476;15.588;2023-01-29T09:00:41;9.10;;;5.00;;
73107;SDS011;61559;50.476;15.588;2023-01-29T09:03:12;11.90;;;6.60;;
73107;SDS011;61559;50.476;15.588;2023-01-29T09:05:44;10.90;;;5.60;;
73107;SDS011;61559;50.476;15.588;2023-01-29T09:08:15;8.10;;;4.40;;
73107;SDS011;61559;50.476;15.588;2023-01-29T09:10:46;11.10;;;6.60;;
73107;SDS011;61559;50.476;15.588;2023-01-29T09:13:18;28.20;;;11.50;;
73107;SDS011;61559;50.476;15.588;2023-01-29T09:15:49;26.90;;;10.60;;
73107;SDS011;61559;50.476;15.588;2023-01-29T09:18:20;30.80;;;12.60;;
73107;SDS011;61559;50.476;15.588;2023-01-29T09:20:51;15.20;;;7.90;;
73107;SDS011;61559;50.476;15.588;2023-01-29T09:23:23;22.80;;;9.90;;
73107;SDS011;61559;50.476;15.588;2023-01-29T09:28:24;19.80;;;8.60;;
73107;SDS011;61559;50.476;15.588;2023-01-29T09:30:55;18.60;;;7.10;;
73107;SDS011;61559;50.476;15.588;2023-01-29T09:33:30;26.10;;;10.20;;
73107;SDS011;61559;50.476;15.588;2023-01-29T09:36:02;18.00;;;7.30;;
73107;SDS011;61559;50.476;15.588;2023-01-29T09:38:34;13.50;;;5.20;;
73107;SDS011;61559;50.476;15.588;2023-01-29T09:41:07;12.10;;;6.10;;
73107;SDS011;61559;50.476;15.588;2023-01-29T09:43:52;7.90;;;3.90;;
73107;SDS011;61559;50.476;15.588;2023-01-29T09:46:27;11.00;;;5.30;;
73107;SDS011;61559;50.476;15.588;2023-01-29T09:49:05;15.30;;;6.30;;
73107;SDS011;61559;50.476;15.588;2023-01-29T09:51:40;16.10;;;7.00;;
73107;SDS011;61559;50.476;15.588;2023-01-29T09:54:18;12.50;;;6.20;;
73107;SDS011;61559;50.476;15.588;2023-01-29T09:56:54;21.40;;;9.20;;
73107;SDS011;61559;50.476;15.588;2023-01-29T09:59:26;19.90;;;8.90;;
73107;SDS011;61559;50.476;15.588;2023-01-29T10:02:03;13.80;;;6.80;;
73107;SDS011;61559;50.476;15.588;2023-01-29T10:04:42;16.00;;;7.50;;
73107;SDS011;61559;50.476;15.588;2023-01-29T10:07:37;12.20;;;6.90;;
73107;SDS011;61559;50.476;15.588;2023-01-29T10:10:27;10.50;;;6.20;;
73107;SDS011;61559;50.476;15.588;2023-01-29T10:13:13;11.10;;;6.10;;
73107;SDS011;61559;50.476;15.588;2023-01-29T10:16:00;10.90;;;5.50;;
73107;SDS011;61559;50.476;15.588;2023-01-29T10:18:58;19.90;;;9.70;;
73107;SDS011;61559;50.476;15.588;2023-01-29T10:21:45;15.30;;;7.70;;
73107;SDS011;61559;50.476;15.588;2023-01-29T10:24:37;14.30;;;7.50;;
73107;SDS011;61559;50.476;15.588;2023-01-29T10:27:15;21.50;;;10.10;;
73107;SDS011;61559;50.476;15.588;2023-01-29T10:29:47;14.40;;;7.30;;
73107;SDS011;61559;50.476;15.588;2023-01-29T10:32:24;36.60;;;17.40;;
73107;SDS011;61559;50.476;15.588;2023-01-29T10:35:02;22.20;;;10.10;;
73107;SDS011;61559;50.476;15.588;2023-01-29T10:37:53;17.30;;;9.10;;
73107;SDS011;61559;50.476;15.588;2023-01-29T10:40:31;19.70;;;10.30;;
73107;SDS011;61559;50.476;15.588;2023-01-29T10:43:09;14.10;;;8.20;;
73107;SDS011;61559;50.476;15.588;2023-01-29T10:45:46;13.50;;;7.80;;
73107;SDS011;61559;50.476;15.588;2023-01-29T10:51:29;15.40;;;8.60;;
73107;SDS011;61559;50.476;15.588;2023-01-29T10:54:15;20.80;;;12.10;;
73107;SDS011;61559;50.476;15.588;2023-01-29T10:57:00;18.00;;;10.30;;
73107;SDS011;61559;50.476;15.588;2023-01-29T10:59:41;28.60;;;14.30;;
73107;SDS011;61559;50.476;15.588;2023-01-29T11:02:22;30.50;;;14.80;;
73107;SDS011;61559;50.476;15.588;2023-01-29T11:04:53;20.60;;;11.20;;
73107;SDS011;61559;50.476;15.588;2023-01-29T11:07:24;26.50;;;13.00;;
73107;SDS011;61559;50.476;15.588;2023-01-29T11:09:59;17.40;;;9.10;;
73107;SDS011;61559;50.476;15.588;2023-01-29T11:12:36;24.30;;;13.90;;
73107;SDS011;61559;50.476;15.588;2023-01-29T11:15:15;18.00;;;9.70;;
73107;SDS011;61559;50.476;15.588;2023-01-29T11:18:07;16.70;;;8.50;;
73107;SDS011;61559;50.476;15.588;2023-01-29T11:20:41;19.70;;;12.30;;
73107;SDS011;61559;50.476;15.588;2023-01-29T11:23:26;15.50;;;9.50;;
73107;SDS011;61559;50.476;15.588;2023-01-29T11:25:59;26.80;;;13.40;;
73107;SDS011;61559;50.476;15.588;2023-01-29T11:28:35;28.40;;;13.50;;
73107;SDS011;61559;50.476;15.588;2023-01-29T11:31:19;31.60;;;13.70;;
73107;SDS011;61559;50.476;15.588;2023-01-29T11:34:00;16.20;;;9.90;;
73107;SDS011;61559;50.476;15.588;2023-01-29T11:36:35;21.50;;;9.90;;
73107;SDS011;61559;50.476;15.588;2023-01-29T11:39:18;15.50;;;8.80;;
73107;SDS011;61559;50.476;15.588;2023-01-29T11:41:54;24.90;;;12.20;;
73107;SDS011;61559;50.476;15.588;2023-01-29T11:44:28;77.20;;;30.70;;
73107;SDS011;61559;50.476;15.588;2023-01-29T11:47:10;20.20;;;10.30;;
73107;SDS011;61559;50.476;15.588;2023-01-29T11:49:47;12.60;;;6.80;;
73107;SDS011;61559;50.476;15.588;2023-01-29T11:52:22;18.30;;;10.10;;
73107;SDS011;61559;50.476;15.588;2023-01-29T11:54:56;14.70;;;8.50;;
73107;SDS011;61559;50.476;15.588;2023-01-29T11:57:30;24.30;;;11.00;;
73107;SDS011;61559;50.476;15.588;2023-01-29T12:00:05;154.30;;;59.30;;
73107;SDS011;61559;50.476;15.588;2023-01-29T12:02:47;111.10;;;42.20;;
73107;SDS011;61559;50.476;15.588;2023-01-29T12:05:23;29.70;;;15.20;;
73107;SDS011;61559;50.476;15.588;2023-01-29T12:07:56;30.80;;;17.80;;
73107;SDS011;61559;50.476;15.588;2023-01-29T12:10:33;18.90;;;11.60;;
73107;SDS011;61559;50.476;15.588;2023-01-29T12:13:08;16.20;;;8.20;;
73107;SDS011;61559;50.476;15.588;2023-01-29T12:16:07;12.00;;;6.90;;
73107;SDS011;61559;50.476;15.588;2023-01-29T12:18:47;18.70;;;9.60;;
73107;SDS011;61559;50.476;15.588;2023-01-29T12:21:25;18.00;;;8.70;;
73107;SDS011;61559;50.476;15.588;2023-01-29T12:24:05;13.10;;;6.30;;
73107;SDS011;61559;50.476;15.588;2023-01-29T12:26:56;16.50;;;9.00;;
73107;SDS011;61559;50.476;15.588;2023-01-29T12:29:39;14.20;;;7.30;;
73107;SDS011;61559;50.476;15.588;2023-01-29T12:32:21;14.80;;;7.10;;
73107;SDS011;61559;50.476;15.588;2023-01-29T12:35:00;20.50;;;9.30;;
73107;SDS011;61559;50.476;15.588;2023-01-29T12:37:39;25.80;;;10.60;;
73107;SDS011;61559;50.476;15.588;2023-01-29T12:40:20;23.10;;;12.20;;
73107;SDS011;61559;50.476;15.588;2023-01-29T12:42:55;16.40;;;8.30;;
73107;SDS011;61559;50.476;15.588;2023-01-29T12:45:34;11.50;;;6.70;;
73107;SDS011;61559;50.476;15.588;2023-01-29T12:48:07;20.90;;;9.20;;
73107;SDS011;61559;50.476;15.588;2023-01-29T12:50:42;20.00;;;11.00;;
73107;SDS011;61559;50.476;15.588;2023-01-29T12:53:17;60.50;;;25.50;;
73107;SDS011;61559;50.476;15.588;2023-01-29T12:55:56;11.20;;;6.30;;
73107;SDS011;61559;50.476;15.588;2023-01-29T13:01:07;14.30;;;5.90;;
73107;SDS011;61559;50.476;15.588;2023-01-29T13:03:46;20.20;;;9.30;;
73107;SDS011;61559;50.476;15.588;2023-01-29T13:06:24;13.00;;;6.80;;
73107;SDS011;61559;50.476;15.588;2023-01-29T13:08:58;18.30;;;8.90;;
73107;SDS011;61559;50.476;15.588;2023-01-29T13:11:34;17.80;;;8.20;;
73107;SDS011;61559;50.476;15.588;2023-01-29T13:14:11;25.70;;;13.60;;
73107;SDS011;61559;50.476;15.588;2023-01-29T13:16:48;28.40;;;13.20;;
73107;SDS011;61559;50.476;15.588;2023-01-29T13:19:23;21.80;;;10.70;;
73107;SDS011;61559;50.476;15.588;2023-01-29T13:21:58;13.80;;;7.60;;
73107;SDS011;61559;50.476;15.588;2023-01-29T13:24:34;36.30;;;16.50;;
73107;SDS011;61559;50.476;15.588;2023-01-29T13:27:11;24.40;;;11.60;;
73107;SDS011;61559;50.476;15.588;2023-01-29T13:29:50;14.20;;;9.00;;
73107;SDS011;61559;50.476;15.588;2023-01-29T13:32:23;12.30;;;7.30;;
73107;SDS011;61559;50.476;15.588;2023-01-29T13:34:56;12.40;;;6.80;;
73107;SDS011;61559;50.476;15.588;2023-01-29T13:37:31;12.30;;;7.30;;
73107;SDS011;61559;50.476;15.588;2023-01-29T13:40:05;13.50;;;6.30;;
73107;SDS011;61559;50.476;15.588;2023-01-29T13:42:47;14.20;;;6.80;;
73107;SDS011;61559;50.476;15.588;2023-01-29T13:45:22;14.80;;;7.40;;
73107;SDS011;61559;50.476;15.588;2023-01-29T13:48:06;17.90;;;9.00;;
73107;SDS011;61559;50.476;15.588;2023-01-29T13:50:40;30.10;;;13.10;;
73107;SDS011;61559;50.476;15.588;2023-01-29T13:53:19;27.10;;;11.70;;
73107;SDS011;61559;50.476;15.588;2023-01-29T13:55:55;20.30;;;11.50;;
73107;SDS011;61559;50.476;15.588;2023-01-29T13:59:21;11.60;;;7.10;;
73107;SDS011;61559;50.476;15.588;2023-01-29T14:02:20;16.70;;;8.80;;
73107;SDS011;61559;50.476;15.588;2023-01-29T14:07:55;15.70;;;8.70;;
73107;SDS011;61559;50.476;15.588;2023-01-29T14:10:28;17.90;;;10.20;;
73107;SDS011;61559;50.476;15.588;2023-01-29T14:19:00;18.10;;;8.90;;
73107;SDS011;61559;50.476;15.588;2023-01-29T14:21:33;15.00;;;6.90;;
73107;SDS011;61559;50.476;15.588;2023-01-29T14:24:10;13.10;;;7.30;;
73107;SDS011;61559;50.476;15.588;2023-01-29T14:26:48;18.20;;;8.40;;
73107;SDS011;61559;50.476;15.588;2023-01-29T14:29:24;16.30;;;7.20;;
73107;SDS011;61559;50.476;15.588;2023-01-29T14:32:08;17.80;;;6.90;;
73107;SDS011;61559;50.476;15.588;2023-01-29T14:34:48;14.00;;;6.70;;
73107;SDS011;61559;50.476;15.588;2023-01-29T14:37:26;17.90;;;8.30;;
73107;SDS011;61559;50.476;15.588;2023-01-29T14:40:06;31.30;;;14.10;;
73107;SDS011;61559;50.476;15.588;2023-01-29T14:42:52;28.90;;;13.30;;
73107;SDS011;61559;50.476;15.588;2023-01-29T14:45:29;26.50;;;12.30;;
73107;SDS011;61559;50.476;15.588;2023-01-29T14:48:02;25.40;;;12.10;;
73107;SDS011;61559;50.476;15.588;2023-01-29T14:50:48;38.30;;;16.30;;
73107;SDS011;61559;50.476;15.588;2023-01-29T14:53:23;22.40;;;10.40;;
73107;SDS011;61559;50.476;15.588;2023-01-29T14:56:14;30.90;;;13.40;;
73107;SDS011;61559;50.476;15.588;2023-01-29T14:58:50;24.70;;;9.60;;
73107;SDS011;61559;50.476;15.588;2023-01-29T15:01:27;52.50;;;22.90;;
73107;SDS011;61559;50.476;15.588;2023-01-29T15:04:03;29.10;;;13.00;;
73107;SDS011;61559;50.476;15.588;2023-01-29T15:06:43;21.20;;;11.10;;
73107;SDS011;61559;50.476;15.588;2023-01-29T15:09:16;20.40;;;9.90;;
73107;SDS011;61559;50.476;15.588;2023-01-29T15:12:05;24.00;;;10.60;;
73107;SDS011;61559;50.476;15.588;2023-01-29T15:14:45;22.20;;;11.10;;
73107;SDS011;61559;50.476;15.588;2023-01-29T15:17:26;22.60;;;10.70;;
73107;SDS011;61559;50.476;15.588;2023-01-29T15:20:01;18.10;;;9.40;;
73107;SDS011;61559;50.476;15.588;2023-01-29T15:22:48;22.50;;;10.80;;
73107;SDS011;61559;50.476;15.588;2023-01-29T15:25:19;17.50;;;8.50;;
73107;SDS011;61559;50.476;15.588;2023-01-29T15:27:51;28.80;;;13.40;;
73107;SDS011;61559;50.476;15.588;2023-01-29T15:30:27;23.80;;;10.70;;
73107;SDS011;61559;50.476;15.588;2023-01-29T15:33:01;23.60;;;11.50;;
73107;SDS011;61559;50.476;15.588;2023-01-29T15:35:38;90.20;;;29.60;;
73107;SDS011;61559;50.476;15.588;2023-01-29T15:38:15;33.90;;;13.00;;
73107;SDS011;61559;50.476;15.588;2023-01-29T15:40:56;170.40;;;53.70;;
73107;SDS011;61559;50.476;15.588;2023-01-29T15:43:29;31.30;;;13.90;;
73107;SDS011;61559;50.476;15.588;2023-01-29T15:46:04;30.20;;;14.20;;
73107;SDS011;61559;50.476;15.588;2023-01-29T15:48:40;59.90;;;20.30;;
73107;SDS011;61559;50.476;15.588;2023-01-29T15:51:14;31.20;;;12.60;;
73107;SDS011;61559;50.476;15.588;2023-01-29T15:53:48;57.60;;;18.60;;